Time;durP1;ratioP1;P1;durP2;ratioP2;P2;SDS_P1;SDS_P2;PMS_P1;PMS_P2;Temp;Humidity;BMP_temperature;BMP_pressure;BME280_temperature;BME280_humidity;BME280_pressure;Samples;Min_cycle;Max_cycle;Signal;HPM_P1;HPM_P2
2022/12/05 00:01:44;;;;;;;450.63;323.57;;;;;;;3.05;78.38;101393.81;4212937;28;20320;-57
2022/12/05 00:03:48;;;;;;;450.57;331.00;;;;;;;3.04;77.54;101392.97;4213605;28;20281;-59
2022/12/05 00:05:50;;;;;;;447.13;326.13;;;;;;;3.08;78.03;101385.56;4212736;28;20303;-60
2022/12/05 00:07:53;;;;;;;448.63;320.03;;;;;;;3.01;77.79;101370.97;4212486;28;20312;-60
2022/12/05 00:09:55;;;;;;;449.77;321.87;;;;;;;3.08;77.87;101384.72;4201936;28;20201;-60
2022/12/05 00:11:57;;;;;;;449.30;329.33;;;;;;;3.08;77.77;101388.25;4190288;28;20317;-59
2022/12/05 00:14:01;;;;;;;446.37;313.97;;;;;;;3.06;77.70;101383.00;4209999;28;20276;-57
2022/12/05 00:16:07;;;;;;;450.90;332.63;;;;;;;3.08;77.72;101384.72;4211091;28;20308;-59
2022/12/05 00:18:09;;;;;;;448.40;322.77;;;;;;;3.08;77.99;101388.25;4213444;28;20741;-59
2022/12/05 00:20:13;;;;;;;453.33;340.23;;;;;;;3.10;78.18;101385.47;4212712;28;20296;-61
2022/12/05 00:22:15;;;;;;;455.13;339.97;;;;;;;3.10;78.87;101390.78;4212900;28;20746;-61
2022/12/05 00:24:18;;;;;;;451.30;317.77;;;;;;;3.10;79.08;101388.97;4212533;28;20273;-59
2022/12/05 00:26:21;;;;;;;456.53;344.83;;;;;;;3.11;78.87;101393.34;4211530;28;20315;-57
2022/12/05 00:28:23;;;;;;;451.40;328.10;;;;;;;3.11;78.66;101389.84;4199925;28;20305;-61
2022/12/05 00:30:26;;;;;;;453.33;330.43;;;;;;;3.10;78.21;101391.63;4212359;28;20659;-61
2022/12/05 00:32:29;;;;;;;451.03;330.23;;;;;;;3.13;78.87;101393.25;4212643;28;20739;-59
2022/12/05 00:34:31;;;;;;;451.13;333.10;;;;;;;3.11;77.98;101395.19;4212963;28;20245;-58
2022/12/05 00:36:36;;;;;;;434.40;283.17;;;;;;;3.12;78.35;101394.19;4211726;28;20316;-60
2022/12/05 00:38:38;;;;;;;437.83;294.13;;;;;;;3.12;78.13;101388.84;4213280;28;20252;-59
2022/12/05 00:40:41;;;;;;;447.73;325.20;;;;;;;3.12;78.49;101391.53;4212574;28;20344;-60
2022/12/05 00:42:45;;;;;;;451.17;329.30;;;;;;;3.11;78.10;101398.69;4212176;28;20746;-58
2022/12/05 00:44:49;;;;;;;451.27;340.93;;;;;;;3.13;78.39;101398.56;4213283;28;20289;-61
2022/12/05 00:46:51;;;;;;;454.33;349.43;;;;;;;3.14;78.18;101405.63;4206804;28;20309;-55
2022/12/05 00:48:54;;;;;;;344.63;254.60;;;;;;;3.13;78.10;101402.09;4212812;28;20296;-56
2022/12/05 00:51:07;;;;;;;462.03;363.07;;;;;;;3.14;78.18;101402.97;4212206;28;20778;-60
2022/12/05 00:53:10;;;;;;;463.47;358.07;;;;;;;3.12;78.01;101397.75;4213102;28;20277;-59
2022/12/05 00:55:14;;;;;;;464.57;365.43;;;;;;;3.13;77.83;101396.75;4211661;28;20996;-59
2022/12/05 00:57:20;;;;;;;456.90;344.70;;;;;;;3.15;78.45;101389.50;4213016;28;20280;-60
2022/12/05 00:59:22;;;;;;;452.03;328.17;;;;;;;3.15;78.56;101394.84;4212941;28;20281;-58
2022/12/05 01:01:26;;;;;;;458.33;346.40;;;;;;;3.16;78.45;101387.69;4204108;28;20321;-60
2022/12/05 01:03:28;;;;;;;456.00;347.93;;;;;;;3.16;78.36;101387.69;4212796;28;20273;-59
2022/12/05 01:05:31;;;;;;;456.27;338.73;;;;;;;3.16;78.21;101387.69;4211388;28;20316;-57
2022/12/05 01:07:33;;;;;;;454.13;330.73;;;;;;;3.17;78.27;101392.06;4212517;28;20316;-57
2022/12/05 01:09:36;;;;;;;454.50;333.83;;;;;;;3.17;78.43;101381.38;4212447;28;20301;-58
2022/12/05 01:11:39;;;;;;;444.83;307.90;;;;;;;3.17;78.60;101390.22;4211000;28;20735;-58
2022/12/05 01:13:42;;;;;;;446.40;316.70;;;;;;;3.18;79.38;101385.75;4206962;28;20289;-58
2022/12/05 01:15:45;;;;;;;449.90;330.43;;;;;;;3.17;78.99;101392.91;4211975;28;20324;-57
2022/12/05 01:17:47;;;;;;;452.97;334.60;;;;;;;3.15;78.76;101383.28;4212625;28;20329;-54
2022/12/05 01:19:49;;;;;;;455.13;338.67;;;;;;;3.17;78.70;101389.41;4212551;28;20273;-56
2022/12/05 01:21:52;;;;;;;444.53;301.30;;;;;;;3.17;78.50;101384.91;4193880;28;20395;-58
2022/12/05 01:23:55;;;;;;;452.13;339.23;;;;;;;3.17;78.50;101382.22;4212517;28;20272;-58
2022/12/05 01:25:58;;;;;;;450.07;346.63;;;;;;;3.18;77.94;101381.28;4211627;28;20775;-58
2022/12/05 01:28:01;;;;;;;449.20;333.83;;;;;;;3.17;77.76;101382.22;4212589;28;20316;-58
2022/12/05 01:30:05;;;;;;;449.10;322.00;;;;;;;3.18;77.29;101375.94;4210537;28;20624;-60
2022/12/05 01:32:07;;;;;;;448.87;323.33;;;;;;;3.19;77.52;101374.09;4212786;28;20194;-58
2022/12/05 01:34:12;;;;;;;450.67;335.63;;;;;;;3.19;77.45;101374.94;4212261;28;20308;-57
2022/12/05 01:36:16;;;;;;;450.87;335.80;;;;;;;3.18;77.80;101375.94;4202248;28;20288;-57
2022/12/05 01:38:18;;;;;;;443.23;316.73;;;;;;;3.19;77.79;101377.63;4212647;28;20324;-59
2022/12/05 01:40:20;;;;;;;459.07;359.13;;;;;;;3.19;77.65;101374.94;4211866;28;20304;-57
2022/12/05 01:42:24;;;;;;;455.10;342.37;;;;;;;3.19;77.91;101366.94;4202684;28;20276;-58
2022/12/05 01:45:03;;;;;;;448.73;327.47;;;;;;;3.19;77.36;101374.09;4212002;28;20293;-58
2022/12/05 01:47:05;;;;;;;445.50;315.67;;;;;;;3.19;77.56;101368.75;4204274;28;21308;-58
2022/12/05 01:49:10;;;;;;;446.40;322.07;;;;;;;3.17;77.43;101368.88;4209506;28;20324;-57
2022/12/05 01:51:12;;;;;;;446.07;313.33;;;;;;;3.19;77.78;101366.09;4208170;28;20312;-57
2022/12/05 01:53:15;;;;;;;451.90;320.80;;;;;;;3.19;78.30;101361.59;4200159;28;20666;-57
2022/12/05 01:55:19;;;;;;;450.47;337.87;;;;;;;3.19;78.02;101366.94;4211695;28;21412;-60
2022/12/05 01:57:23;;;;;;;441.17;298.93;;;;;;;3.18;77.68;101367.94;4212609;28;20261;-58
2022/12/05 01:59:28;;;;;;;453.30;323.67;;;;;;;3.18;77.49;101364.38;4215610;28;20288;-59
2022/12/05 02:01:30;;;;;;;449.87;330.57;;;;;;;3.18;77.39;101364.38;4214980;28;20320;-60
2022/12/05 02:03:33;;;;;;;453.83;337.90;;;;;;;3.19;77.58;101360.75;4215886;28;20265;-59
2022/12/05 02:05:37;;;;;;;462.47;362.63;;;;;;;3.20;77.80;101360.66;4212118;28;20252;-58
2022/12/05 02:07:40;;;;;;;449.87;330.77;;;;;;;3.20;77.32;101362.47;4215814;28;20305;-56
2022/12/05 02:09:43;;;;;;;453.20;337.00;;;;;;;3.21;77.48;101369.50;4215788;28;20220;-59
2022/12/05 02:11:50;;;;;;;448.67;326.00;;;;;;;3.20;77.40;101363.31;4214997;28;20257;-61
2022/12/05 02:14:03;;;;;;;442.93;311.77;;;;;;;3.21;77.72;101358.81;4215298;28;20197;-58
2022/12/05 02:16:12;;;;;;;446.93;323.10;;;;;;;3.21;77.94;101356.16;4214500;28;20221;-58
2022/12/05 02:18:26;;;;;;;443.03;304.30;;;;;;;3.18;78.02;101357.25;4215447;28;20308;-59
2022/12/05 02:20:37;;;;;;;452.00;326.23;;;;;;;3.20;77.76;101362.47;4213341;28;20337;-60
2022/12/05 02:23:02;;;;;;;453.67;339.27;;;;;;;3.20;77.53;101367.81;4204282;28;20304;-60
2022/12/05 02:25:17;;;;;;;454.27;340.53;;;;;;;3.20;77.79;101370.47;4203809;28;20292;-58
2022/12/05 02:27:31;;;;;;;449.83;325.63;;;;;;;3.18;77.78;101359.03;4202196;28;20273;-58
2022/12/05 02:29:57;;;;;;;448.07;331.27;;;;;;;3.20;77.79;101365.97;4215206;28;20272;-57
2022/12/05 02:32:05;;;;;;;450.80;327.30;;;;;;;3.19;77.46;101364.28;4213240;28;20300;-57
2022/12/05 02:34:16;;;;;;;447.67;330.63;;;;;;;3.20;77.17;101357.13;4215064;28;20312;-58
2022/12/05 02:36:25;;;;;;;445.33;319.83;;;;;;;3.20;77.46;101362.47;4214033;28;20304;-57
2022/12/05 02:38:32;;;;;;;450.20;332.33;;;;;;;3.21;77.59;101362.34;4214975;28;20300;-58
2022/12/05 02:40:40;;;;;;;447.77;321.77;;;;;;;3.21;77.78;101357.03;4214140;28;20335;-58
2022/12/05 02:42:45;;;;;;;447.57;329.50;;;;;;;3.22;77.55;101360.53;4215043;28;20629;-59
2022/12/05 02:44:51;;;;;;;451.33;331.87;;;;;;;3.22;77.85;101355.19;4214587;28;20198;-60
2022/12/05 02:46:56;;;;;;;454.00;345.10;;;;;;;3.23;77.95;101355.06;4214113;28;20309;-58
2022/12/05 02:49:00;;;;;;;453.43;334.23;;;;;;;3.24;78.04;101358.59;4214299;28;20316;-58
2022/12/05 02:51:04;;;;;;;449.73;330.27;;;;;;;3.22;77.59;101350.69;4213882;28;20825;-59
2022/12/05 02:53:10;;;;;;;452.30;334.33;;;;;;;3.25;78.03;101342.47;4214359;28;20276;-59
2022/12/05 02:55:14;;;;;;;453.47;337.00;;;;;;;3.24;77.52;101343.44;4213898;28;20193;-55
2022/12/05 02:57:17;;;;;;;455.37;336.27;;;;;;;3.24;77.98;101345.25;4214698;28;20278;-57
2022/12/05 02:59:19;;;;;;;455.53;341.67;;;;;;;3.26;77.92;101340.66;4214681;28;20277;-56
2022/12/05 03:01:24;;;;;;;459.37;354.63;;;;;;;3.25;77.62;101342.47;4213754;28;20651;-57
2022/12/05 03:03:28;;;;;;;457.87;351.60;;;;;;;3.25;77.80;101342.47;4214655;28;20284;-57
2022/12/05 03:05:36;;;;;;;457.63;345.77;;;;;;;3.27;78.01;101341.50;4213537;28;20316;-60
2022/12/05 03:07:38;;;;;;;458.97;350.27;;;;;;;3.27;78.00;101345.00;4213654;28;20295;-58
2022/12/05 03:09:44;;;;;;;458.73;351.20;;;;;;;3.27;77.95;101341.50;4213381;28;20296;-59
2022/12/05 03:11:49;;;;;;;459.47;362.10;;;;;;;3.27;77.57;101345.00;4213821;28;20317;-58
2022/12/05 03:13:55;;;;;;;457.50;343.97;;;;;;;3.29;77.98;101339.56;4214698;28;20272;-57
2022/12/05 03:16:00;;;;;;;457.67;347.07;;;;;;;3.28;77.76;101340.53;4213247;28;20284;-57
2022/12/05 03:18:05;;;;;;;456.27;344.10;;;;;;;3.27;77.92;101337.00;4214411;28;20306;-58
2022/12/05 03:20:13;;;;;;;464.40;374.70;;;;;;;3.26;77.81;101338.00;4213520;28;20273;-58
2022/12/05 03:22:19;;;;;;;461.83;358.77;;;;;;;3.25;77.90;101334.44;4212812;28;20292;-58
2022/12/05 03:24:21;;;;;;;464.87;369.17;;;;;;;3.28;77.49;101351.22;4214476;28;20273;-58
2022/12/05 03:26:37;;;;;;;476.87;408.37;;;;;;;3.31;77.56;101348.28;4213057;28;20309;-57
2022/12/05 03:28:48;;;;;;;467.87;374.53;;;;;;;3.30;77.85;101341.28;4214000;28;20316;-60
2022/12/05 03:30:52;;;;;;;465.60;373.33;;;;;;;3.31;77.58;101341.16;4213559;28;20308;-59
2022/12/05 03:32:58;;;;;;;460.93;350.40;;;;;;;3.32;78.10;101342.84;4213941;28;20292;-57
2022/12/05 03:35:05;;;;;;;462.93;357.33;;;;;;;3.31;78.09;101345.63;4213132;28;20277;-57
2022/12/05 03:37:13;;;;;;;467.57;372.37;;;;;;;3.31;78.26;101351.84;4195621;28;20205;-57
2022/12/05 03:39:21;;;;;;;460.67;349.70;;;;;;;3.32;78.34;101342.00;4208227;28;20276;-59
2022/12/05 03:41:28;;;;;;;462.27;360.03;;;;;;;3.31;78.15;101343.81;4212544;28;20311;-56
2022/12/05 03:43:36;;;;;;;455.67;340.00;;;;;;;3.29;77.88;101344.91;4200894;28;20348;-60
2022/12/05 03:45:44;;;;;;;459.27;349.10;;;;;;;3.29;78.00;101340.44;4212914;28;20328;-58
2022/12/05 03:47:50;;;;;;;454.10;335.70;;;;;;;3.24;77.93;101337.22;4214029;28;20307;-60
2022/12/05 03:49:56;;;;;;;457.63;344.93;;;;;;;3.25;77.79;101334.44;4213776;28;20324;-57
2022/12/05 03:52:03;;;;;;;456.37;342.17;;;;;;;3.30;78.05;101338.59;4212561;28;20505;-54
2022/12/05 03:54:10;;;;;;;458.33;348.53;;;;;;;3.32;78.19;101339.34;4213283;28;20606;-54
2022/12/05 03:56:15;;;;;;;460.90;356.70;;;;;;;3.33;78.41;101343.72;4209344;28;20320;-58
2022/12/05 03:58:20;;;;;;;454.07;326.77;;;;;;;3.32;78.22;101334.84;4214275;28;20639;-58
2022/12/05 04:00:24;;;;;;;456.17;343.97;;;;;;;3.32;77.65;101342.00;4213116;28;20336;-55
2022/12/05 04:02:30;;;;;;;455.57;346.50;;;;;;;3.32;77.93;101344.66;4213617;28;20292;-58
2022/12/05 04:04:36;;;;;;;459.20;356.40;;;;;;;3.34;78.17;101346.28;4213691;28;20269;-58
2022/12/05 04:06:39;;;;;;;459.23;352.70;;;;;;;3.33;77.57;101349.06;4212666;28;20333;-57
2022/12/05 04:08:45;;;;;;;459.87;349.13;;;;;;;3.33;77.85;101341.03;4212732;28;20305;-57
2022/12/05 04:10:51;;;;;;;461.43;362.57;;;;;;;3.34;77.52;101340.94;4196966;28;20764;-55
2022/12/05 04:12:55;;;;;;;454.37;339.03;;;;;;;3.34;77.61;101343.59;4201960;28;20276;-57
2022/12/05 04:15:00;;;;;;;463.30;356.53;;;;;;;3.34;78.02;101346.28;4207276;28;20301;-58
2022/12/05 04:17:04;;;;;;;458.57;352.30;;;;;;;3.32;78.42;101342.84;4208987;28;21733;-56
2022/12/05 04:19:10;;;;;;;461.37;356.37;;;;;;;3.35;78.01;101341.78;4212501;28;21677;-55
2022/12/05 04:23:34;;;;;;;458.77;353.60;;;;;;;3.34;78.02;101337.38;4204178;28;20282;-60
2022/12/05 04:25:39;;;;;;;458.53;348.80;;;;;;;3.34;77.42;101340.06;4210149;28;20316;-57
2022/12/05 04:27:50;;;;;;;455.23;339.20;;;;;;;3.35;77.93;101339.94;4212306;28;20317;-59
2022/12/05 04:29:58;;;;;;;463.67;371.03;;;;;;;3.35;77.84;101344.44;4213205;28;20309;-55
2022/12/05 04:32:04;;;;;;;458.40;351.43;;;;;;;3.36;77.70;101338.16;4209147;28;20300;-55
2022/12/05 04:34:09;;;;;;;456.50;345.80;;;;;;;3.35;78.16;101342.63;4203194;28;20305;-54
2022/12/05 04:36:14;;;;;;;454.13;336.83;;;;;;;3.35;78.17;101336.44;4207792;28;20305;-58
2022/12/05 04:38:20;;;;;;;453.43;328.63;;;;;;;3.36;78.55;101339.00;4202390;28;20309;-54
2022/12/05 04:40:26;;;;;;;461.23;362.30;;;;;;;3.37;78.82;101334.50;4211830;28;20304;-56
2022/12/05 04:42:29;;;;;;;465.57;367.40;;;;;;;3.37;79.14;101337.16;4212417;28;20640;-56
2022/12/05 04:44:36;;;;;;;461.23;362.13;;;;;;;3.35;79.30;101337.28;4213172;28;20273;-58
2022/12/05 04:46:42;;;;;;;464.63;371.13;;;;;;;3.35;79.00;101333.75;4208048;28;20304;-57
2022/12/05 04:48:48;;;;;;;459.43;353.80;;;;;;;3.34;78.91;101335.59;4210846;28;20742;-56
2022/12/05 04:50:51;;;;;;;461.40;359.63;;;;;;;3.34;78.41;101335.59;4211086;28;20751;-58
2022/12/05 04:52:54;;;;;;;461.20;351.83;;;;;;;3.35;78.41;101339.09;4210168;28;20276;-56
2022/12/05 04:55:01;;;;;;;459.97;348.53;;;;;;;3.37;79.07;101345.16;4211252;28;20285;-57
2022/12/05 04:57:08;;;;;;;461.07;359.40;;;;;;;3.37;78.71;101347.84;4211287;28;21455;-59
2022/12/05 04:59:10;;;;;;;465.07;377.93;;;;;;;3.33;78.72;101346.38;4212879;28;20296;-57
2022/12/05 05:01:17;;;;;;;456.23;354.33;;;;;;;3.38;78.73;101344.22;4212085;28;20694;-56
2022/12/05 05:03:25;;;;;;;467.40;364.07;;;;;;;3.37;78.58;101339.81;4212523;28;20626;-60
2022/12/05 05:05:28;;;;;;;466.53;390.40;;;;;;;3.35;79.06;101333.75;4207930;28;20323;-55
2022/12/05 05:07:30;;;;;;;466.00;382.13;;;;;;;3.39;79.17;101343.25;4210046;28;20313;-60
2022/12/05 05:09:32;;;;;;;458.10;353.13;;;;;;;3.33;79.48;101333.88;4212867;28;20640;-59
2022/12/05 05:11:36;;;;;;;453.80;336.77;;;;;;;3.37;79.29;101343.38;4210100;28;20321;-57
2022/12/05 05:13:39;;;;;;;455.40;349.53;;;;;;;3.38;79.31;101342.38;4210595;28;20277;-60
2022/12/05 05:15:41;;;;;;;460.93;360.27;;;;;;;3.37;79.23;101339.81;4211516;28;20316;-60
2022/12/05 05:17:44;;;;;;;460.47;359.50;;;;;;;3.39;79.18;101344.09;4212547;28;20633;-59
2022/12/05 05:19:47;;;;;;;458.30;344.30;;;;;;;3.38;78.83;101347.72;4212895;28;20735;-61
2022/12/05 05:21:53;;;;;;;461.97;368.47;;;;;;;3.39;78.55;101335.25;4192920;28;20677;-60
2022/12/05 05:23:55;;;;;;;463.30;361.50;;;;;;;3.39;79.15;101345.94;4212635;28;20273;-58
2022/12/05 05:25:58;;;;;;;459.97;391.23;;;;;;;3.41;79.08;101344.81;4208229;28;20420;-63
2022/12/05 05:28:00;;;;;;;453.80;341.80;;;;;;;3.41;78.80;101346.66;4210613;28;20308;-59
2022/12/05 05:30:02;;;;;;;452.53;332.67;;;;;;;3.41;78.48;101347.50;4204401;28;20305;-60
2022/12/05 05:32:05;;;;;;;451.40;336.30;;;;;;;3.39;78.66;101346.78;4209690;28;20865;-60
2022/12/05 05:34:09;;;;;;;457.27;351.37;;;;;;;3.37;78.75;101346.03;4216046;28;20309;-59
2022/12/05 05:36:13;;;;;;;457.87;344.50;;;;;;;3.39;78.62;101343.25;4214959;28;20312;-58
2022/12/05 05:38:15;;;;;;;458.30;347.50;;;;;;;3.41;78.17;101343.97;4215676;28;20623;-60
2022/12/05 05:40:18;;;;;;;466.00;384.40;;;;;;;3.38;78.45;101334.38;4214894;28;20317;-60
2022/12/05 05:42:20;;;;;;;453.90;342.57;;;;;;;3.41;78.68;101339.47;4215411;28;20704;-60
2022/12/05 05:44:22;;;;;;;457.13;345.83;;;;;;;3.42;78.49;101345.69;4214380;28;20269;-59
2022/12/05 05:46:28;;;;;;;459.50;355.70;;;;;;;3.41;78.57;101343.97;4211523;28;20312;-59
2022/12/05 05:48:30;;;;;;;460.37;356.70;;;;;;;3.40;78.78;101343.13;4209149;28;20312;-60
2022/12/05 05:50:34;;;;;;;457.03;352.23;;;;;;;3.41;78.79;101338.63;4207002;28;20313;-60
2022/12/05 05:52:37;;;;;;;453.37;334.13;;;;;;;3.39;78.39;101344.09;4211633;28;20285;-60
2022/12/05 05:54:39;;;;;;;461.30;360.53;;;;;;;3.41;78.59;101346.66;4211796;28;20578;-60
2022/12/05 05:56:42;;;;;;;460.90;370.53;;;;;;;3.39;78.55;101341.44;4196058;28;20309;-61
2022/12/05 05:58:44;;;;;;;460.13;360.60;;;;;;;3.42;78.57;101345.69;4211088;28;20326;-60
2022/12/05 06:00:46;;;;;;;458.33;352.03;;;;;;;3.40;78.89;101348.47;4210889;28;20798;-60
2022/12/05 06:02:48;;;;;;;456.60;337.17;;;;;;;3.42;78.80;101351.03;4213925;28;20194;-59
2022/12/05 06:04:51;;;;;;;459.43;353.53;;;;;;;3.43;78.69;101352.72;4213992;28;20280;-61
2022/12/05 06:06:54;;;;;;;458.53;358.57;;;;;;;3.43;79.08;101348.25;4207533;28;20300;-59
2022/12/05 06:08:57;;;;;;;460.90;355.33;;;;;;;3.43;79.00;101350.91;4215175;28;20586;-58
2022/12/05 06:10:59;;;;;;;459.47;363.43;;;;;;;3.40;78.87;101343.13;4193987;28;20229;-60
2022/12/05 06:13:01;;;;;;;459.13;354.10;;;;;;;3.43;79.00;101353.59;4208378;28;20304;-60
2022/12/05 06:15:05;;;;;;;461.97;365.50;;;;;;;3.43;79.16;101350.03;4210009;28;20270;-60
2022/12/05 06:17:07;;;;;;;454.00;346.80;;;;;;;3.43;79.00;101358.06;4214143;28;20285;-59
2022/12/05 06:19:09;;;;;;;455.43;341.60;;;;;;;3.42;79.18;101354.56;4214833;28;20289;-60
2022/12/05 06:21:12;;;;;;;459.00;357.87;;;;;;;3.42;79.06;101359.88;4208114;28;20650;-60
2022/12/05 06:23:16;;;;;;;458.00;352.00;;;;;;;3.41;79.01;101352.84;4208708;28;20907;-60
2022/12/05 06:25:18;;;;;;;461.13;356.50;;;;;;;3.43;79.07;101363.41;4213300;28;20316;-56
2022/12/05 06:27:20;;;;;;;461.23;358.93;;;;;;;3.42;79.30;101359.88;4208761;28;20718;-59
2022/12/05 06:29:23;;;;;;;459.57;352.77;;;;;;;3.44;79.12;101359.78;4210191;28;20284;-60
2022/12/05 06:31:29;;;;;;;462.43;366.33;;;;;;;3.43;79.21;101366.94;4210613;28;20351;-60
2022/12/05 06:33:32;;;;;;;459.70;354.60;;;;;;;3.43;78.99;101358.94;4203619;28;20317;-58
2022/12/05 06:35:34;;;;;;;458.70;350.23;;;;;;;3.43;78.87;101361.59;4210664;28;20300;-58
2022/12/05 06:37:37;;;;;;;461.70;362.63;;;;;;;3.43;78.86;101366.94;4211814;28;20297;-60
2022/12/05 06:39:41;;;;;;;467.17;375.17;;;;;;;3.45;79.17;101366.81;4208933;28;20277;-60
2022/12/05 06:41:43;;;;;;;461.60;359.17;;;;;;;3.44;78.71;101370.47;4209364;28;20297;-59
2022/12/05 06:43:46;;;;;;;463.03;374.37;;;;;;;3.46;79.20;101373.00;4209139;28;20739;-61
2022/12/05 06:45:52;;;;;;;461.07;362.77;;;;;;;3.45;79.10;101374.84;4208043;28;20308;-60
2022/12/05 06:47:54;;;;;;;459.23;356.27;;;;;;;3.46;79.37;101379.19;4212006;28;20305;-61
2022/12/05 06:49:56;;;;;;;462.83;371.50;;;;;;;3.42;79.83;101373.25;4213697;28;20276;-60
2022/12/05 06:51:59;;;;;;;463.37;367.43;;;;;;;3.45;79.89;101382.84;4208038;28;20213;-60
2022/12/05 06:54:01;;;;;;;463.93;371.37;;;;;;;3.46;80.02;101381.03;4205081;28;20881;-59
2022/12/05 06:56:07;;;;;;;468.23;378.53;;;;;;;3.43;79.96;101379.44;4208477;28;20313;-59
2022/12/05 06:58:09;;;;;;;458.80;357.30;;;;;;;3.45;80.42;101380.19;4206610;28;20301;-58
2022/12/05 07:02:34;;;;;;;574.88;518.75;;;;;;;3.49;79.72;101383.47;4212523;28;20821;-60
2022/12/05 07:04:37;;;;;;;462.03;370.13;;;;;;;3.60;79.13;101384.38;4209946;28;20286;-59
2022/12/05 07:06:40;;;;;;;459.00;361.43;;;;;;;3.60;78.86;101381.72;4203287;28;20289;-60
2022/12/05 07:08:43;;;;;;;462.93;365.23;;;;;;;3.59;79.31;101387.16;4212145;28;20308;-61
2022/12/05 07:10:50;;;;;;;454.33;342.63;;;;;;;3.54;79.28;101382.16;4212460;28;20324;-60
2022/12/05 07:12:55;;;;;;;460.13;370.33;;;;;;;3.54;79.15;101389.31;4214398;28;20284;-61
2022/12/05 07:14:57;;;;;;;462.83;369.97;;;;;;;3.52;79.27;101386.75;4213143;28;20841;-61
2022/12/05 07:16:59;;;;;;;460.80;372.97;;;;;;;3.52;79.04;101399.25;4208554;28;20879;-60
2022/12/05 07:19:02;;;;;;;471.37;385.03;;;;;;;3.51;79.37;101392.19;4208787;28;20296;-60
2022/12/05 07:21:06;;;;;;;471.07;383.93;;;;;;;3.49;79.22;101397.66;4209953;28;20814;-60
2022/12/05 07:23:09;;;;;;;470.37;385.10;;;;;;;3.48;78.90;101398.66;4212518;28;20276;-59
2022/12/05 07:25:11;;;;;;;472.23;389.63;;;;;;;3.50;79.04;101395.88;4211279;28;20710;-60
2022/12/05 07:27:15;;;;;;;467.20;373.77;;;;;;;3.48;79.17;101385.28;4211714;28;20778;-60
2022/12/05 07:29:18;;;;;;;462.03;367.77;;;;;;;3.50;79.03;101398.53;4212894;28;20281;-61
2022/12/05 07:31:22;;;;;;;463.17;373.10;;;;;;;3.49;79.22;101388.81;4211856;28;20313;-57
2022/12/05 07:33:24;;;;;;;464.07;370.10;;;;;;;3.49;79.88;101395.00;4212600;28;20308;-61
2022/12/05 07:35:27;;;;;;;459.63;357.40;;;;;;;3.47;79.42;101391.59;4211874;28;20252;-59
2022/12/05 07:37:29;;;;;;;459.40;354.30;;;;;;;3.49;79.33;101399.50;4213083;28;20312;-58
2022/12/05 07:39:32;;;;;;;462.03;368.27;;;;;;;3.48;79.72;101395.97;4213905;28;20277;-59
2022/12/05 07:41:34;;;;;;;461.90;365.30;;;;;;;3.48;79.58;101398.66;4213068;28;20755;-60
2022/12/05 07:43:41;;;;;;;461.10;360.50;;;;;;;3.48;79.71;101393.31;4195228;28;20292;-60
2022/12/05 07:45:45;;;;;;;462.57;367.63;;;;;;;3.49;79.82;101395.00;4212654;28;20237;-60
2022/12/05 07:47:47;;;;;;;463.97;362.20;;;;;;;3.48;79.89;101397.78;4213714;28;20300;-58
2022/12/05 07:49:50;;;;;;;467.07;389.70;;;;;;;3.48;80.29;101398.66;4213684;28;20285;-61
2022/12/05 07:51:52;;;;;;;466.40;383.10;;;;;;;3.49;80.42;101391.47;4212928;28;20313;-61
2022/12/05 07:53:54;;;;;;;468.77;392.40;;;;;;;3.42;80.75;101383.09;4213409;28;20277;-58
2022/12/05 07:55:59;;;;;;;465.67;372.70;;;;;;;3.47;80.70;101386.25;4211575;28;20304;-61
2022/12/05 07:58:01;;;;;;;465.70;372.27;;;;;;;3.46;80.58;101392.53;4201320;28;20296;-58
2022/12/05 08:00:05;;;;;;;469.73;385.00;;;;;;;3.50;80.29;101393.19;4212784;28;20802;-60
2022/12/05 08:02:16;;;;;;;470.73;392.73;;;;;;;3.48;79.93;101397.78;4213764;28;20273;-61
2022/12/05 08:04:18;;;;;;;464.07;382.83;;;;;;;3.50;80.38;101403.88;4213317;28;20404;-60
2022/12/05 08:06:22;;;;;;;468.33;385.73;;;;;;;3.48;79.81;101398.66;4212421;28;20317;-59
2022/12/05 08:08:24;;;;;;;471.70;399.60;;;;;;;3.50;80.12;101403.88;4213516;28;20300;-59
2022/12/05 08:10:26;;;;;;;466.87;380.23;;;;;;;3.45;79.96;101398.00;4212615;28;20316;-60
2022/12/05 08:12:28;;;;;;;468.27;385.20;;;;;;;3.50;79.89;101407.38;4212656;28;20312;-59
2022/12/05 08:14:31;;;;;;;467.40;385.40;;;;;;;3.50;79.59;101404.72;4213519;28;20318;-59
2022/12/05 08:16:33;;;;;;;469.03;384.60;;;;;;;3.51;79.89;101402.88;4211328;28;20331;-58
2022/12/05 08:18:37;;;;;;;466.47;386.37;;;;;;;3.51;79.82;101394.88;4213082;28;20321;-59
2022/12/05 08:20:39;;;;;;;461.50;364.33;;;;;;;3.51;79.75;101400.22;4198152;28;20300;-57
2022/12/05 08:22:41;;;;;;;460.00;357.17;;;;;;;3.50;79.43;101394.03;4196350;28;20277;-59
2022/12/05 08:24:44;;;;;;;463.10;369.53;;;;;;;3.51;79.66;101406.44;4207977;28;20269;-59
2022/12/05 08:26:46;;;;;;;468.67;387.10;;;;;;;3.52;80.21;101402.78;4210952;28;20237;-55
2022/12/05 08:28:52;;;;;;;469.33;393.87;;;;;;;3.52;80.16;101401.94;4213016;28;20257;-59
2022/12/05 08:30:54;;;;;;;471.20;390.07;;;;;;;3.52;80.15;101399.25;4212146;28;20313;-59
2022/12/05 08:32:56;;;;;;;471.57;391.63;;;;;;;3.52;80.51;101401.94;4212177;28;20225;-58
2022/12/05 08:35:00;;;;;;;469.63;392.30;;;;;;;3.52;80.37;101399.25;4212106;28;20284;-60
2022/12/05 08:37:02;;;;;;;463.80;366.70;;;;;;;3.52;80.11;101404.59;4194618;28;20753;-57
2022/12/05 08:39:06;;;;;;;464.77;373.83;;;;;;;3.52;79.78;101404.59;4196283;28;20292;-60
2022/12/05 08:41:09;;;;;;;460.33;373.80;;;;;;;3.52;80.16;101407.28;4205840;28;20757;-59
2022/12/05 08:43:11;;;;;;;465.83;382.30;;;;;;;3.51;79.74;101403.75;4212728;28;20273;-59
2022/12/05 08:45:14;;;;;;;462.77;377.93;;;;;;;3.52;79.97;101402.78;4206881;28;20316;-59
2022/12/05 08:47:16;;;;;;;464.50;373.77;;;;;;;3.53;80.40;101396.47;4203678;28;20649;-59
2022/12/05 08:49:19;;;;;;;464.93;376.50;;;;;;;3.52;80.68;101399.25;4202884;28;20236;-59
2022/12/05 08:51:22;;;;;;;465.53;374.60;;;;;;;3.53;80.48;101403.66;4211431;28;20308;-58
2022/12/05 08:53:25;;;;;;;464.53;368.10;;;;;;;3.53;80.21;101406.31;4212762;28;20277;-57
2022/12/05 08:55:27;;;;;;;470.30;394.40;;;;;;;3.53;80.40;101407.16;4211060;28;20799;-57
2022/12/05 08:57:29;;;;;;;469.57;387.33;;;;;;;3.53;80.62;101411.66;4212595;28;20308;-59
2022/12/05 08:59:31;;;;;;;470.73;391.57;;;;;;;3.52;80.25;101407.28;4212430;28;20305;-60
2022/12/05 09:01:37;;;;;;;468.60;374.93;;;;;;;3.53;80.25;101400.97;4211816;28;20297;-60
2022/12/05 09:03:39;;;;;;;469.27;386.33;;;;;;;3.52;80.59;101394.75;4212418;28;20292;-59
2022/12/05 09:05:42;;;;;;;465.23;372.83;;;;;;;3.52;80.64;101397.44;4211596;28;20316;-60
2022/12/05 09:07:45;;;;;;;464.67;374.70;;;;;;;3.52;80.49;101394.75;4211464;28;20748;-58
2022/12/05 09:09:47;;;;;;;465.73;381.13;;;;;;;3.53;80.68;101404.50;4212574;28;20281;-55
2022/12/05 09:11:50;;;;;;;469.97;389.17;;;;;;;3.53;80.09;101415.16;4211763;28;20320;-55
2022/12/05 09:13:53;;;;;;;466.97;381.80;;;;;;;3.50;80.54;101402.03;4212390;28;20305;-56
2022/12/05 09:15:56;;;;;;;465.03;373.10;;;;;;;3.52;80.63;101412.63;4211434;28;20233;-54
2022/12/05 09:17:58;;;;;;;463.03;367.77;;;;;;;3.52;80.49;101408.13;4212438;28;20308;-58
2022/12/05 09:20:00;;;;;;;461.07;358.90;;;;;;;3.52;80.26;101408.13;4211644;28;20281;-58
2022/12/05 09:22:04;;;;;;;464.40;374.83;;;;;;;3.53;80.30;101407.16;4210555;28;20273;-60
2022/12/05 09:24:09;;;;;;;462.43;367.30;;;;;;;3.52;80.66;101396.59;4212540;28;20397;-54